KSDL

Details ICAO KSDL (SCF)
Name SCOTTSDALE
Region United States
Timezone America/Phoenix (UTC-7.0)
Plans Departing 1273
Arriving 1115
Stats Elevation 1,510 ft / 460 m (AMSL)
Location 33.622900° -111.911000°
Runways 1
Magnetic Variation 9.712° E
Sunrise 2024-05-25 12:22:16 UTC / 2024-05-25 05:22:16 Local
Sunset 2024-05-26 02:29:55 UTC / 2024-05-25 19:29:55 Local
Advertisement - Login to hide

Runways

ID Width Length Bearing (true/mag) Surface Threshold Overrun Markings Lighting
03 100 ft / 30 m 8,253 ft / 2,516 m 43.82° / 34.11° ASPHALT 740 ft / 226 m 0 ft / 0 m APP EDGE THRESHOLD REIL-OMNI
21 100 ft / 30 m 8,253 ft / 2,516 m 223.83° / 214.12° ASPHALT 400 ft / 122 m 0 ft / 0 m APP EDGE THRESHOLD REIL-OMNI

Map

Weather


0- 5 10 15 20 25 30 35+ Temperature / °C

Clouds and Precipitation
Forecast for 2024-04-15 18:00 UTC. Updated a month ago

Ground ~20,000 ft ~40,000 ft Winds

METAR

KSDL 250753Z AUTO 25007KT 10SM CLR 27/M01 A2976 RMK AO2 SLP051 T02721006

TAF

KSDL 250526Z 2506/2606 24009KT P6SM SKC FM251000 15005KT P6SM SKC FM251700 23009KT P6SM SKC FM251900 24009G17KT P6SM SKC FM260100 25005KT P6SM SKC

Frequencies

Approach 120.70 MHz PHOENIX APP/DEP
Clearance 124.80 MHz CLNC DEL
Tower 119.90 MHz
Unicom 119.90 MHz CTAF
Ground 121.60 MHz
Recorded 118.60 MHz ATIS
Warning: Do not use this data for real-world aviation or navigation. No guarantee of current accuracy is given.